Time;durP1;ratioP1;P1;durP2;ratioP2;P2;SDS_P1;SDS_P2;PMS_P1;PMS_P2;Temp;Humidity;BMP_temperature;BMP_pressure;BME280_temperature;BME280_humidity;BME280_pressure;Samples;Min_cycle;Max_cycle;Signal;HPM_P1;HPM_P2
2022/01/28 00:01:34;;;;;;;26.38;15.43;;;;;;;;;;5044993;28;20473;-72
2022/01/28 00:04:12;;;;;;;36.25;18.42;;;;;;;;;;5048379;28;20400;-72
2022/01/28 00:06:39;;;;;;;32.88;18.20;;;;;;;;;;5050836;28;21447;-72
2022/01/28 00:09:07;;;;;;;43.95;19.58;;;;;;;;;;5051526;28;20120;-72
2022/01/28 00:11:36;;;;;;;56.30;21.75;;;;;;;;;;5028501;28;20037;-72
2022/01/28 00:38:47;;;;;;;14.75;10.38;;;;;;;;;;4968760;28;20138;-72
2022/01/28 00:41:15;;;;;;;12.07;8.80;;;;;;;;;;4968583;28;20058;-71
2022/01/28 00:43:43;;;;;;;17.25;11.93;;;;;;;;;;4957946;28;20565;-71
2022/01/28 00:46:11;;;;;;;10.10;7.32;;;;;;;;;;4968462;28;20070;-72
2022/01/28 00:48:38;;;;;;;16.88;11.07;;;;;;;;;;4965736;28;20074;-71
2022/01/28 00:51:05;;;;;;;9.57;8.07;;;;;;;;;;4969321;28;20101;-72
2022/01/28 00:53:33;;;;;;;8.68;6.85;;;;;;;;;;5016863;28;20136;-72
2022/01/28 00:56:00;;;;;;;8.45;7.20;;;;;;;;;;5053852;28;20124;-72
2022/01/28 00:58:28;;;;;;;8.98;7.68;;;;;;;;;;5048005;28;20037;-72
2022/01/28 01:00:55;;;;;;;10.95;8.15;;;;;;;;;;5047306;28;20037;-71
2022/01/28 01:03:23;;;;;;;10.57;7.85;;;;;;;;;;5047504;28;20033;-72
2022/01/28 01:05:50;;;;;;;10.65;9.18;;;;;;;;;;5048130;28;20040;-72
2022/01/28 01:08:17;;;;;;;9.18;7.78;;;;;;;;;;5047971;28;20040;-71
2022/01/28 01:10:45;;;;;;;11.15;9.30;;;;;;;;;;5048912;28;20124;-72
2022/01/28 01:13:12;;;;;;;13.15;9.77;;;;;;;;;;5049185;28;20411;-72
2022/01/28 01:15:43;;;;;;;12.38;8.57;;;;;;;;;;5049725;28;20065;-72
2022/01/28 01:18:19;;;;;;;12.00;10.00;;;;;;;;;;5041205;28;20088;-73
2022/01/28 01:23:22;;;;;;;9.88;8.55;;;;;;;;;;5028975;28;20544;-73
2022/01/28 01:25:55;;;;;;;7.93;7.15;;;;;;;;;;5035036;28;20493;-72
2022/01/28 01:28:28;;;;;;;9.68;8.27;;;;;;;;;;5014800;28;20051;-72
2022/01/28 01:30:57;;;;;;;13.95;9.82;;;;;;;;;;5043040;28;20106;-72
2022/01/28 01:33:26;;;;;;;11.15;9.20;;;;;;;;;;5049157;28;20053;-72
2022/01/28 01:35:54;;;;;;;8.43;6.50;;;;;;;;;;5027341;28;20055;-72
2022/01/28 01:38:25;;;;;;;9.25;7.90;;;;;;;;;;5040486;28;20041;-72
2022/01/28 01:40:56;;;;;;;11.18;9.30;;;;;;;;;;5031612;28;20056;-73
2022/01/28 01:54:02;;;;;;;6.00;5.40;;;;;;;;;;5048400;28;20060;-73
2022/01/28 01:56:30;;;;;;;10.68;8.25;;;;;;;;;;5047092;28;20076;-73
2022/01/28 01:58:57;;;;;;;8.05;4.75;;;;;;;;;;5045095;28;20404;-72
2022/01/28 02:01:25;;;;;;;5.60;4.90;;;;;;;;;;5048850;28;20045;-72
2022/01/28 02:03:53;;;;;;;6.85;6.03;;;;;;;;;;5040898;28;20046;-73
2022/01/28 02:06:22;;;;;;;7.32;6.63;;;;;;;;;;5028413;28;20077;-72
2022/01/28 02:08:50;;;;;;;7.13;5.28;;;;;;;;;;5031666;28;20052;-72
2022/01/28 02:11:18;;;;;;;6.47;5.55;;;;;;;;;;5017889;28;20049;-72
2022/01/28 02:13:48;;;;;;;4.95;4.45;;;;;;;;;;5033414;28;20041;-73
2022/01/28 02:16:16;;;;;;;5.70;5.22;;;;;;;;;;5041231;28;20072;-73
2022/01/28 02:18:44;;;;;;;7.65;6.30;;;;;;;;;;5028562;28;20037;-73
2022/01/28 02:21:14;;;;;;;8.13;7.32;;;;;;;;;;5049504;28;20083;-73
2022/01/28 02:23:45;;;;;;;6.70;6.07;;;;;;;;;;5044782;28;20037;-73
2022/01/28 02:26:15;;;;;;;8.25;6.60;;;;;;;;;;5029319;28;20111;-73
2022/01/28 02:28:45;;;;;;;7.97;5.25;;;;;;;;;;5045358;28;20084;-73
2022/01/28 02:31:18;;;;;;;6.35;5.45;;;;;;;;;;5046358;28;20137;-73
2022/01/28 02:33:47;;;;;;;4.85;4.35;;;;;;;;;;5043405;28;20033;-75
2022/01/28 02:36:15;;;;;;;4.78;4.38;;;;;;;;;;5043594;28;20100;-73
2022/01/28 02:38:42;;;;;;;7.30;6.38;;;;;;;;;;5043034;28;20065;-73
2022/01/28 02:41:10;;;;;;;7.60;6.82;;;;;;;;;;5034357;28;20061;-74
2022/01/28 02:43:59;;;;;;;6.82;5.75;;;;;;;;;;5039429;28;20455;-73
2022/01/28 02:46:30;;;;;;;7.38;6.68;;;;;;;;;;5028745;28;20512;-73
2022/01/28 02:49:05;;;;;;;11.05;7.90;;;;;;;;;;5045717;28;20068;-73
2022/01/28 02:51:33;;;;;;;6.15;5.55;;;;;;;;;;5047007;28;20390;-74
2022/01/28 02:54:11;;;;;;;10.27;7.75;;;;;;;;;;5041111;28;20099;-73
2022/01/28 02:56:46;;;;;;;5.95;5.32;;;;;;;;;;5028926;28;20493;-74
2022/01/28 02:59:13;;;;;;;5.03;4.60;;;;;;;;;;5046223;28;20105;-74
2022/01/28 03:01:41;;;;;;;4.45;3.63;;;;;;;;;;5030036;28;20053;-73
2022/01/28 03:04:12;;;;;;;6.65;6.05;;;;;;;;;;5043384;28;20049;-74
2022/01/28 03:06:40;;;;;;;9.73;5.50;;;;;;;;;;5041927;28;20489;-73
2022/01/28 03:09:20;;;;;;;4.75;4.35;;;;;;;;;;5047192;28;20072;-73
2022/01/28 03:12:13;;;;;;;4.57;4.15;;;;;;;;;;5047719;28;20393;-73
2022/01/28 03:20:05;;;;;;;5.20;4.68;;;;;;;;;;5025806;28;20400;-74
2022/01/28 03:22:33;;;;;;;5.70;5.20;;;;;;;;;;5044572;28;20060;-74
2022/01/28 03:25:00;;;;;;;5.40;4.88;;;;;;;;;;5047207;28;20049;-73
2022/01/28 03:28:01;;;;;;;5.45;5.05;;;;;;;;;;5026092;28;20045;-73
2022/01/28 03:30:22;;;;;;;6.13;5.47;;;;;;;;;;5034708;28;20049;-73
2022/01/28 03:32:49;;;;;;;7.30;5.10;;;;;;;;;;5044228;28;20266;-73
2022/01/28 03:35:28;;;;;;;4.45;4.05;;;;;;;;;;5045966;28;20076;-73
2022/01/28 03:38:02;;;;;;;6.68;6.05;;;;;;;;;;5045510;28;20033;-72
2022/01/28 03:40:33;;;;;;;6.32;5.72;;;;;;;;;;5043322;28;20098;-74
2022/01/28 03:43:01;;;;;;;6.53;5.80;;;;;;;;;;5044749;28;20033;-71
2022/01/28 03:45:29;;;;;;;6.97;6.28;;;;;;;;;;5028413;28;20045;-74
2022/01/28 03:47:56;;;;;;;5.93;5.18;;;;;;;;;;5048174;28;20045;-74
2022/01/28 03:50:23;;;;;;;7.32;4.43;;;;;;;;;;5046011;28;20111;-76
2022/01/28 03:52:51;;;;;;;3.63;3.08;;;;;;;;;;5042955;28;20060;-74
2022/01/28 03:55:18;;;;;;;4.90;4.03;;;;;;;;;;5050185;28;20130;-75
2022/01/28 03:57:46;;;;;;;7.93;5.10;;;;;;;;;;5045727;28;20360;-73
2022/01/28 04:00:13;;;;;;;4.60;3.95;;;;;;;;;;5052172;28;21091;-74
2022/01/28 04:02:43;;;;;;;7.00;5.18;;;;;;;;;;5055728;28;20036;-74
2022/01/28 04:11:55;;;;;;;4.38;3.95;;;;;;;;;;5049870;28;20112;-74
2022/01/28 04:13:51;;;;;;;4.30;3.42;;;;;;;;;;5046535;28;20115;-74
2022/01/28 04:17:18;;;;;;;7.82;5.43;;;;;;;;;;5051393;28;20045;-74
2022/01/28 04:19:17;;;;;;;5.93;5.38;;;;;;;;;;5050384;28;20103;-73
2022/01/28 04:21:45;;;;;;;5.13;4.45;;;;;;;;;;5053009;28;20036;-72
2022/01/28 04:24:13;;;;;;;4.13;3.83;;;;;;;;;;5046770;28;20124;-73
2022/01/28 04:26:40;;;;;;;7.10;5.95;;;;;;;;;;5034630;28;20627;-73
2022/01/28 04:29:08;;;;;;;7.00;6.30;;;;;;;;;;5039345;28;20070;-74
2022/01/28 04:31:36;;;;;;;7.40;6.00;;;;;;;;;;5037627;28;20473;-74
2022/01/28 04:34:03;;;;;;;5.53;4.63;;;;;;;;;;5043219;28;20038;-73
2022/01/28 04:36:35;;;;;;;5.20;4.65;;;;;;;;;;5042909;28;20131;-73
2022/01/28 04:39:18;;;;;;;5.45;4.80;;;;;;;;;;5043812;28;20037;-73
2022/01/28 04:44:26;;;;;;;8.63;6.75;;;;;;;;;;5044964;28;20129;-73
2022/01/28 05:03:21;;;;;;;5.55;5.00;;;;;;;;;;5027507;28;20591;-73
2022/01/28 05:06:23;;;;;;;7.20;4.82;;;;;;;;;;5022779;28;20413;-72
2022/01/28 05:27:38;;;;;;;5.72;4.43;;;;;;;;;;4969703;28;20050;-72
2022/01/28 05:30:06;;;;;;;3.50;2.85;;;;;;;;;;4970468;28;20133;-72
2022/01/28 05:32:33;;;;;;;5.30;4.15;;;;;;;;;;4969183;28;20050;-73
2022/01/28 05:35:01;;;;;;;6.55;4.30;;;;;;;;;;4967798;28;20076;-74
2022/01/28 05:37:28;;;;;;;6.38;5.68;;;;;;;;;;4968110;28;20051;-72
2022/01/28 05:39:59;;;;;;;4.10;3.17;;;;;;;;;;4978487;28;20497;-74
2022/01/28 05:42:27;;;;;;;5.35;4.25;;;;;;;;;;4971275;28;20050;-72
2022/01/28 05:44:54;;;;;;;5.10;3.70;;;;;;;;;;4976519;28;20137;-72
2022/01/28 05:47:24;;;;;;;6.35;4.75;;;;;;;;;;4979959;28;20062;-72
2022/01/28 05:49:51;;;;;;;6.22;3.88;;;;;;;;;;4968060;28;20069;-72
2022/01/28 05:52:18;;;;;;;9.07;5.38;;;;;;;;;;4967322;28;20043;-73
2022/01/28 05:54:46;;;;;;;5.00;4.50;;;;;;;;;;5044184;28;20041;-72
2022/01/28 05:57:13;;;;;;;6.32;4.35;;;;;;;;;;5044115;28;20043;-72
2022/01/28 05:59:40;;;;;;;7.22;4.65;;;;;;;;;;5046799;28;20044;-74
2022/01/28 06:02:09;;;;;;;7.28;5.30;;;;;;;;;;5040792;28;20033;-72
2022/01/28 06:04:37;;;;;;;5.85;3.42;;;;;;;;;;5062928;28;20041;-73
2022/01/28 06:07:04;;;;;;;8.90;5.28;;;;;;;;;;5055586;28;20145;-73
2022/01/28 06:09:32;;;;;;;5.32;4.18;;;;;;;;;;5058585;28;20119;-72
2022/01/28 06:11:59;;;;;;;7.78;5.57;;;;;;;;;;5048046;28;20048;-74
2022/01/28 06:14:27;;;;;;;7.18;4.32;;;;;;;;;;5050601;28;20037;-72
2022/01/28 06:16:54;;;;;;;7.57;5.35;;;;;;;;;;5030466;28;20070;-72
2022/01/28 06:19:21;;;;;;;10.63;6.22;;;;;;;;;;5034102;28;20049;-71
2022/01/28 06:21:49;;;;;;;8.23;5.55;;;;;;;;;;5053206;28;20091;-71
2022/01/28 06:24:16;;;;;;;8.50;6.47;;;;;;;;;;5045357;28;20034;-72
2022/01/28 06:26:43;;;;;;;9.75;7.10;;;;;;;;;;5047724;28;20500;-71
2022/01/28 06:29:12;;;;;;;5.85;5.20;;;;;;;;;;5020197;28;20492;-71
2022/01/28 06:31:41;;;;;;;8.23;5.53;;;;;;;;;;5042111;28;20047;-72
2022/01/28 06:34:09;;;;;;;10.18;6.28;;;;;;;;;;5040853;28;20132;-72
2022/01/28 06:36:36;;;;;;;11.02;6.63;;;;;;;;;;5042028;28;20049;-73
2022/01/28 06:39:04;;;;;;;5.07;4.43;;;;;;;;;;5048157;28;20133;-72
2022/01/28 06:41:32;;;;;;;9.35;6.72;;;;;;;;;;5041216;28;22466;-72
2022/01/28 06:43:59;;;;;;;6.68;3.90;;;;;;;;;;5046321;28;20029;-73
2022/01/28 06:46:27;;;;;;;7.45;6.22;;;;;;;;;;5042930;28;20061;-72
2022/01/28 06:48:54;;;;;;;10.27;6.47;;;;;;;;;;5043970;28;20115;-73
2022/01/28 06:51:21;;;;;;;6.10;5.35;;;;;;;;;;5046941;28;20116;-72
2022/01/28 06:53:49;;;;;;;6.25;5.05;;;;;;;;;;5046669;28;20057;-73
2022/01/28 06:56:16;;;;;;;8.85;6.57;;;;;;;;;;5043016;28;20087;-72
2022/01/28 06:58:44;;;;;;;10.43;7.03;;;;;;;;;;5041867;28;20069;-73
2022/01/28 07:01:12;;;;;;;7.85;5.63;;;;;;;;;;5038611;28;20044;-73
2022/01/28 07:03:40;;;;;;;13.73;7.47;;;;;;;;;;5031442;28;20396;-73
2022/01/28 07:06:07;;;;;;;14.27;7.47;;;;;;;;;;5029226;28;20041;-73
2022/01/28 07:08:35;;;;;;;10.88;7.15;;;;;;;;;;5047442;28;20041;-73
2022/01/28 07:11:02;;;;;;;10.30;7.07;;;;;;;;;;5044557;28;20056;-72
2022/01/28 07:13:29;;;;;;;8.60;6.10;;;;;;;;;;5041610;28;20067;-73
2022/01/28 07:15:57;;;;;;;7.60;4.80;;;;;;;;;;5039582;28;20120;-73
2022/01/28 07:18:24;;;;;;;7.00;5.57;;;;;;;;;;5035270;28;20120;-72
2022/01/28 07:20:52;;;;;;;10.63;6.55;;;;;;;;;;5044443;28;20051;-72
2022/01/28 07:23:19;;;;;;;11.02;6.68;;;;;;;;;;5044659;28;20047;-73
2022/01/28 07:25:46;;;;;;;11.77;6.93;;;;;;;;;;5046064;28;20045;-73
2022/01/28 07:28:13;;;;;;;10.40;7.85;;;;;;;;;;5044460;28;20055;-73
2022/01/28 07:30:41;;;;;;;11.38;6.57;;;;;;;;;;5042381;28;20588;-72
2022/01/28 07:33:10;;;;;;;8.48;6.55;;;;;;;;;;5025502;28;20049;-72
2022/01/28 07:35:37;;;;;;;8.25;6.97;;;;;;;;;;5010736;28;20046;-72
2022/01/28 07:38:05;;;;;;;12.05;7.25;;;;;;;;;;5009545;28;20129;-72
2022/01/28 07:40:32;;;;;;;8.68;6.70;;;;;;;;;;4992115;28;20146;-73
2022/01/28 07:42:59;;;;;;;10.93;7.85;;;;;;;;;;5000091;28;20132;-73
2022/01/28 07:45:27;;;;;;;10.48;7.97;;;;;;;;;;5010741;28;20120;-72
2022/01/28 07:47:54;;;;;;;5.85;3.55;;;;;;;;;;5006236;28;20052;-73
2022/01/28 07:50:22;;;;;;;5.25;4.35;;;;;;;;;;5002860;28;20053;-72
2022/01/28 07:52:49;;;;;;;3.33;3.03;;;;;;;;;;5000683;28;20074;-73
2022/01/28 07:55:16;;;;;;;5.00;3.60;;;;;;;;;;5005985;28;20046;-73
2022/01/28 07:57:45;;;;;;;11.38;4.95;;;;;;;;;;5017995;28;20049;-73
2022/01/28 08:00:13;;;;;;;8.32;4.90;;;;;;;;;;5008826;28;20057;-73
2022/01/28 08:02:44;;;;;;;6.68;4.15;;;;;;;;;;5009182;28;20041;-73
2022/01/28 08:05:12;;;;;;;5.68;4.22;;;;;;;;;;5008232;28;20600;-74
2022/01/28 08:07:40;;;;;;;7.38;5.05;;;;;;;;;;5045520;28;20636;-73
2022/01/28 08:10:07;;;;;;;4.72;4.32;;;;;;;;;;5013457;28;20114;-73
2022/01/28 08:12:45;;;;;;;7.57;4.95;;;;;;;;;;5048705;28;21513;-72
2022/01/28 08:15:13;;;;;;;8.77;4.80;;;;;;;;;;5048660;28;20041;-73
2022/01/28 08:17:40;;;;;;;6.45;4.85;;;;;;;;;;5044629;28;20041;-73
2022/01/28 08:20:11;;;;;;;8.15;4.80;;;;;;;;;;5025180;28;20433;-73
2022/01/28 08:22:49;;;;;;;15.45;9.30;;;;;;;;;;5043837;28;20047;-72
2022/01/28 08:25:18;;;;;;;6.50;5.70;;;;;;;;;;5049428;28;20080;-72
2022/01/28 08:27:46;;;;;;;12.57;11.25;;;;;;;;;;5039293;28;20041;-73
2022/01/28 08:30:14;;;;;;;3.67;3.38;;;;;;;;;;5016222;28;20132;-74
2022/01/28 08:32:41;;;;;;;6.00;4.93;;;;;;;;;;5034000;28;20124;-73
2022/01/28 08:35:09;;;;;;;5.47;4.70;;;;;;;;;;5033858;28;20064;-73
2022/01/28 08:37:37;;;;;;;7.45;4.40;;;;;;;;;;5050821;28;20505;-72
2022/01/28 08:40:05;;;;;;;5.88;4.20;;;;;;;;;;5048634;28;20056;-73
2022/01/28 08:42:32;;;;;;;6.22;3.85;;;;;;;;;;5030250;28;20123;-73
2022/01/28 08:45:00;;;;;;;9.90;4.55;;;;;;;;;;5048928;28;20095;-73
2022/01/28 08:47:27;;;;;;;5.90;3.90;;;;;;;;;;5049175;28;20473;-72
2022/01/28 08:49:55;;;;;;;2.38;2.13;;;;;;;;;;5048720;28;20037;-73
2022/01/28 08:52:22;;;;;;;4.40;3.63;;;;;;;;;;5046316;28;20174;-74
2022/01/28 08:54:51;;;;;;;6.30;4.63;;;;;;;;;;5041949;28;20088;-72
2022/01/28 08:57:18;;;;;;;5.25;4.18;;;;;;;;;;5048267;28;20044;-72
2022/01/28 08:59:45;;;;;;;6.65;5.10;;;;;;;;;;5044900;28;20580;-73
2022/01/28 09:02:13;;;;;;;5.13;3.72;;;;;;;;;;5031547;28;20052;-72
2022/01/28 09:04:41;;;;;;;10.02;5.15;;;;;;;;;;5050992;28;20052;-72
2022/01/28 09:07:08;;;;;;;4.70;3.58;;;;;;;;;;5048433;28;20041;-72
2022/01/28 09:09:35;;;;;;;4.25;3.45;;;;;;;;;;5048013;28;20033;-72
2022/01/28 09:12:19;;;;;;;8.13;4.25;;;;;;;;;;5046819;28;20484;-71
2022/01/28 09:14:47;;;;;;;6.07;3.67;;;;;;;;;;5048192;28;20127;-72
2022/01/28 09:17:14;;;;;;;6.60;4.00;;;;;;;;;;5050654;28;20084;-73
2022/01/28 09:19:43;;;;;;;8.48;4.78;;;;;;;;;;5033113;28;20040;-72
2022/01/28 09:22:11;;;;;;;9.48;4.93;;;;;;;;;;5050637;28;20045;-72
2022/01/28 09:24:38;;;;;;;8.35;5.00;;;;;;;;;;5049903;28;20041;-74
2022/01/28 09:27:06;;;;;;;10.48;6.10;;;;;;;;;;5048803;28;20044;-73
2022/01/28 09:29:33;;;;;;;4.00;3.30;;;;;;;;;;5032665;28;20517;-71
2022/01/28 09:32:01;;;;;;;5.40;4.03;;;;;;;;;;5048962;28;20047;-71
2022/01/28 09:34:28;;;;;;;11.63;4.68;;;;;;;;;;5051725;28;20131;-71
2022/01/28 09:36:56;;;;;;;8.23;3.40;;;;;;;;;;5059791;28;20051;-71
2022/01/28 09:39:24;;;;;;;6.05;4.80;;;;;;;;;;5070644;28;20060;-72
2022/01/28 09:41:59;;;;;;;7.90;4.65;;;;;;;;;;5054714;28;20040;-72
2022/01/28 09:44:28;;;;;;;6.57;4.45;;;;;;;;;;5049089;28;20389;-72
2022/01/28 09:46:58;;;;;;;9.38;4.38;;;;;;;;;;5034321;28;20041;-72
2022/01/28 09:49:26;;;;;;;9.65;5.28;;;;;;;;;;5046870;28;20492;-72
2022/01/28 09:51:54;;;;;;;8.25;5.13;;;;;;;;;;5050087;28;20131;-72
2022/01/28 09:54:22;;;;;;;10.10;4.82;;;;;;;;;;5050388;28;20559;-72
2022/01/28 09:56:50;;;;;;;6.10;4.88;;;;;;;;;;5049914;28;20044;-72
2022/01/28 09:59:18;;;;;;;7.20;4.68;;;;;;;;;;5050272;28;20518;-72
2022/01/28 10:01:52;;;;;;;10.68;4.88;;;;;;;;;;5049385;28;20098;-72
2022/01/28 10:04:21;;;;;;;7.90;4.30;;;;;;;;;;5047466;28;20072;-72
2022/01/28 10:06:48;;;;;;;7.88;4.30;;;;;;;;;;5050986;28;20105;-72
2022/01/28 10:09:18;;;;;;;3.45;3.03;;;;;;;;;;5050731;28;20073;-72
2022/01/28 10:11:48;;;;;;;4.38;3.05;;;;;;;;;;5044998;28;20037;-71
2022/01/28 10:14:22;;;;;;;4.68;3.25;;;;;;;;;;5049531;28;20041;-72
2022/01/28 10:16:57;;;;;;;5.20;1.98;;;;;;;;;;5049222;28;20076;-72
2022/01/28 10:19:36;;;;;;;6.90;3.85;;;;;;;;;;5024103;28;20048;-72
2022/01/28 10:22:04;;;;;;;4.65;2.85;;;;;;;;;;5049454;28;20080;-72
2022/01/28 10:24:33;;;;;;;6.03;3.20;;;;;;;;;;5049681;28;20041;-73
2022/01/28 10:27:09;;;;;;;6.15;2.70;;;;;;;;;;5046873;28;20052;-73
2022/01/28 10:29:41;;;;;;;3.22;2.60;;;;;;;;;;5049089;28;20855;-72
2022/01/28 10:32:10;;;;;;;4.78;2.90;;;;;;;;;;5049144;28;20037;-73
2022/01/28 10:34:37;;;;;;;4.35;3.30;;;;;;;;;;5049688;28;20048;-73
2022/01/28 10:37:20;;;;;;;3.35;1.40;;;;;;;;;;5049552;28;20049;-73
2022/01/28 10:39:52;;;;;;;5.30;2.67;;;;;;;;;;5048633;28;20044;-73
2022/01/28 10:42:48;;;;;;;2.85;1.80;;;;;;;;;;5047018;28;20096;-73
2022/01/28 10:45:18;;;;;;;3.80;1.85;;;;;;;;;;5048916;28;20044;-73
2022/01/28 10:47:48;;;;;;;1.88;1.42;;;;;;;;;;5048957;28;20123;-73
2022/01/28 10:50:29;;;;;;;3.38;1.98;;;;;;;;;;5048451;28;20127;-73
2022/01/28 10:53:19;;;;;;;2.00;1.25;;;;;;;;;;5049524;28;20041;-74
2022/01/28 10:55:48;;;;;;;3.95;2.00;;;;;;;;;;5031486;28;20044;-73
2022/01/28 10:58:17;;;;;;;4.72;2.90;;;;;;;;;;5044690;28;20107;-73
2022/01/28 11:00:46;;;;;;;3.35;1.30;;;;;;;;;;5044041;28;20045;-74
2022/01/28 11:03:16;;;;;;;4.15;1.83;;;;;;;;;;5066775;28;20630;-74
2022/01/28 11:05:44;;;;;;;1.67;1.13;;;;;;;;;;5046470;28;20501;-73
2022/01/28 11:08:12;;;;;;;4.65;2.13;;;;;;;;;;5048407;28;20453;-74
2022/01/28 11:10:40;;;;;;;3.45;1.70;;;;;;;;;;5047460;28;20044;-73
2022/01/28 11:13:08;;;;;;;1.75;1.23;;;;;;;;;;5031070;28;20041;-74
2022/01/28 11:15:35;;;;;;;3.75;2.17;;;;;;;;;;5044154;28;20119;-74
2022/01/28 11:18:04;;;;;;;3.80;1.73;;;;;;;;;;5029918;28;20123;-73
2022/01/28 11:20:34;;;;;;;3.38;1.77;;;;;;;;;;5029417;28;20045;-73
2022/01/28 11:23:01;;;;;;;10.63;2.15;;;;;;;;;;5048099;28;20129;-73
2022/01/28 11:25:38;;;;;;;3.45;1.17;;;;;;;;;;5048035;28;20123;-74
2022/01/28 11:28:09;;;;;;;3.08;1.58;;;;;;;;;;5047961;28;20037;-73
2022/01/28 11:30:44;;;;;;;4.10;2.00;;;;;;;;;;5046389;28;20124;-72
2022/01/28 11:33:12;;;;;;;3.00;1.92;;;;;;;;;;5042060;28;20124;-73
2022/01/28 11:35:59;;;;;;;2.40;1.60;;;;;;;;;;5045928;28;20149;-73
2022/01/28 11:38:27;;;;;;;1.85;1.50;;;;;;;;;;5045365;28;20439;-74
2022/01/28 11:40:55;;;;;;;3.65;1.80;;;;;;;;;;5046014;28;20033;-73
2022/01/28 11:43:25;;;;;;;3.15;1.40;;;;;;;;;;5046651;28;20496;-73
2022/01/28 11:46:05;;;;;;;1.65;1.27;;;;;;;;;;5046769;28;20029;-74
2022/01/28 11:48:52;;;;;;;4.00;1.50;;;;;;;;;;5044393;28;20044;-73
2022/01/28 11:51:23;;;;;;;2.92;1.40;;;;;;;;;;5044455;28;20048;-73
2022/01/28 11:53:57;;;;;;;2.70;1.38;;;;;;;;;;5043393;28;20095;-74
2022/01/28 11:56:25;;;;;;;4.38;1.67;;;;;;;;;;5045836;28;20037;-74
2022/01/28 11:58:53;;;;;;;4.72;2.00;;;;;;;;;;5049081;28;20069;-74
2022/01/28 12:01:39;;;;;;;2.13;1.40;;;;;;;;;;5047480;28;20041;-73
2022/01/28 12:04:25;;;;;;;4.38;1.75;;;;;;;;;;5044186;28;20033;-74
2022/01/28 12:06:56;;;;;;;3.80;2.13;;;;;;;;;;5039176;28;20036;-74
2022/01/28 12:09:24;;;;;;;4.10;1.88;;;;;;;;;;5029386;28;20554;-73
2022/01/28 12:11:51;;;;;;;3.85;1.80;;;;;;;;;;5046138;28;20057;-74
2022/01/28 12:14:19;;;;;;;5.28;1.70;;;;;;;;;;5022822;28;20048;-75
2022/01/28 12:16:47;;;;;;;3.83;1.50;;;;;;;;;;5041762;28;20029;-75
2022/01/28 12:19:19;;;;;;;4.70;1.90;;;;;;;;;;5046317;28;20497;-76
2022/01/28 12:22:22;;;;;;;5.32;1.40;;;;;;;;;;5051126;28;20124;-73
2022/01/28 12:24:49;;;;;;;5.78;1.50;;;;;;;;;;4948455;28;20212;-74
2022/01/28 12:27:19;;;;;;;4.72;1.40;;;;;;;;;;4945021;29;20059;-74
2022/01/28 12:29:50;;;;;;;3.28;1.50;;;;;;;;;;4931183;29;20090;-74
2022/01/28 12:32:18;;;;;;;;;;;;;;;;;;4935547;28;20111;-76
2022/01/28 12:34:47;;;;;;;7.28;2.60;;;;;;;;;;4946144;28;19923;-77
2022/01/28 12:37:20;;;;;;;3.45;1.77;;;;;;;;;;4942617;28;20074;-75
2022/01/28 12:39:56;;;;;;;6.07;2.05;;;;;;;;;;4930096;29;20146;-74
2022/01/28 12:42:23;;;;;;;4.07;1.45;;;;;;;;;;4944821;29;20595;-76
2022/01/28 12:44:52;;;;;;;4.63;1.42;;;;;;;;;;4945436;29;20039;-76
2022/01/28 12:47:19;;;;;;;2.78;1.38;;;;;;;;;;4943895;29;20070;-75
2022/01/28 12:49:53;;;;;;;3.78;1.65;;;;;;;;;;4936501;28;20097;-75
2022/01/28 12:52:20;;;;;;;2.22;0.85;;;;;;;;;;4942915;29;20492;-75
2022/01/28 12:54:48;;;;;;;2.22;0.85;;;;;;;;;;4930458;29;20047;-77
2022/01/28 12:57:17;;;;;;;2.72;1.40;;;;;;;;;;4946940;28;20075;-75
2022/01/28 12:59:46;;;;;;;4.75;1.15;;;;;;;;;;5031286;28;20056;-78
2022/01/28 13:02:14;;;;;;;3.38;1.30;;;;;;;;;;5024700;28;20111;-76
2022/01/28 13:04:53;;;;;;;1.77;1.10;;;;;;;;;;5038862;28;20496;-76
2022/01/28 13:09:55;;;;;;;2.45;1.30;;;;;;;;;;5029352;28;20183;-75
2022/01/28 13:12:23;;;;;;;4.45;1.58;;;;;;;;;;5031903;28;20492;-74
2022/01/28 13:14:50;;;;;;;2.00;1.30;;;;;;;;;;5032451;28;20033;-75
2022/01/28 13:17:19;;;;;;;5.70;1.45;;;;;;;;;;5029252;28;20585;-75
2022/01/28 13:19:57;;;;;;;5.63;1.40;;;;;;;;;;5029309;28;20611;-77
2022/01/28 13:22:26;;;;;;;2.40;1.40;;;;;;;;;;5029692;28;20037;-76
2022/01/28 13:24:54;;;;;;;1.92;1.30;;;;;;;;;;5008535;28;20095;-77
2022/01/28 13:27:22;;;;;;;2.35;1.13;;;;;;;;;;5035266;28;20049;-78
2022/01/28 13:29:53;;;;;;;4.95;1.10;;;;;;;;;;5038744;28;20045;-75
2022/01/28 13:32:26;;;;;;;6.93;1.33;;;;;;;;;;5033973;28;20069;-77
2022/01/28 13:34:58;;;;;;;3.53;1.70;;;;;;;;;;5018295;28;20049;-75
2022/01/28 13:37:33;;;;;;;4.38;1.33;;;;;;;;;;5019836;28;20160;-76
2022/01/28 13:40:01;;;;;;;2.30;0.95;;;;;;;;;;5029931;28;20134;-75
2022/01/28 13:42:29;;;;;;;3.85;1.40;;;;;;;;;;5031749;28;20516;-74
2022/01/28 13:44:58;;;;;;;8.27;1.52;;;;;;;;;;5027634;28;20120;-76
2022/01/28 13:47:26;;;;;;;5.10;1.50;;;;;;;;;;5038373;28;20037;-75
2022/01/28 13:49:57;;;;;;;2.63;1.40;;;;;;;;;;5037601;28;20084;-75
2022/01/28 13:52:42;;;;;;;4.43;1.40;;;;;;;;;;5039488;28;20642;-76
2022/01/28 13:55:28;;;;;;;2.97;1.38;;;;;;;;;;5019529;28;20070;-76
2022/01/28 13:58:02;;;;;;;1.40;0.75;;;;;;;;;;5031525;28;20189;-75
2022/01/28 14:00:40;;;;;;;3.65;1.42;;;;;;;;;;5036059;28;20049;-74
2022/01/28 14:03:15;;;;;;;1.85;0.93;;;;;;;;;;5023110;28;20041;-75
2022/01/28 14:05:51;;;;;;;3.03;1.30;;;;;;;;;;5036615;28;20048;-75
2022/01/28 14:08:42;;;;;;;8.15;1.58;;;;;;;;;;5041219;28;20780;-75
2022/01/28 14:11:28;;;;;;;3.33;1.13;;;;;;;;;;5035909;28;20487;-77
2022/01/28 14:14:40;;;;;;;4.75;1.70;;;;;;;;;;5014330;28;20089;-75
2022/01/28 14:17:05;;;;;;;5.55;1.60;;;;;;;;;;5020696;28;20055;-75
2022/01/28 14:19:36;;;;;;;4.22;1.15;;;;;;;;;;5039837;28;20064;-75
2022/01/28 14:22:10;;;;;;;4.00;2.30;;;;;;;;;;5042913;28;20057;-75
2022/01/28 14:24:53;;;;;;;3.40;1.25;;;;;;;;;;5038898;28;20040;-75
2022/01/28 14:27:47;;;;;;;3.45;1.83;;;;;;;;;;5004912;28;20614;-77
2022/01/28 14:30:21;;;;;;;2.42;1.40;;;;;;;;;;5014271;28;20064;-76
2022/01/28 14:32:49;;;;;;;4.53;1.50;;;;;;;;;;5039055;28;20104;-75
2022/01/28 14:35:17;;;;;;;4.68;1.63;;;;;;;;;;5023139;28;20053;-74
2022/01/28 14:37:45;;;;;;;2.22;1.45;;;;;;;;;;5021606;28;20288;-76
2022/01/28 14:40:14;;;;;;;3.53;1.73;;;;;;;;;;5031838;28;20120;-75
2022/01/28 14:42:42;;;;;;;3.45;2.03;;;;;;;;;;5022005;28;20067;-74
2022/01/28 14:45:09;;;;;;;7.85;2.08;;;;;;;;;;5045827;28;20547;-76
2022/01/28 14:47:37;;;;;;;3.22;1.42;;;;;;;;;;5026302;28;20083;-78
2022/01/28 14:50:06;;;;;;;4.03;1.65;;;;;;;;;;5034594;28;20048;-76
2022/01/28 14:52:33;;;;;;;7.07;2.58;;;;;;;;;;5042215;28;20049;-74
2022/01/28 14:55:02;;;;;;;5.82;1.38;;;;;;;;;;5040938;28;20049;-74
2022/01/28 14:57:30;;;;;;;3.53;1.83;;;;;;;;;;5035084;28;20501;-75
2022/01/28 14:59:57;;;;;;;7.05;2.38;;;;;;;;;;5036914;28;20045;-76
2022/01/28 15:02:27;;;;;;;5.05;2.47;;;;;;;;;;5032054;28;20045;-75
2022/01/28 15:04:58;;;;;;;3.67;1.70;;;;;;;;;;5021858;28;20033;-75
2022/01/28 15:07:28;;;;;;;3.08;1.38;;;;;;;;;;5038622;28;20046;-74
2022/01/28 15:09:58;;;;;;;6.95;2.22;;;;;;;;;;5020067;28;20041;-75
2022/01/28 15:12:26;;;;;;;4.60;1.60;;;;;;;;;;5023601;28;20535;-74
2022/01/28 15:14:53;;;;;;;3.40;1.50;;;;;;;;;;5031764;28;20049;-75
2022/01/28 15:17:21;;;;;;;3.03;1.35;;;;;;;;;;5029993;28;20041;-74
2022/01/28 15:19:50;;;;;;;5.72;1.77;;;;;;;;;;5013596;28;20041;-73
2022/01/28 15:22:18;;;;;;;9.50;1.60;;;;;;;;;;5035812;28;20044;-74
2022/01/28 15:24:46;;;;;;;5.75;1.77;;;;;;;;;;5041613;28;20096;-75
2022/01/28 15:27:13;;;;;;;7.70;1.92;;;;;;;;;;5050343;28;20041;-75
2022/01/28 15:30:05;;;;;;;4.53;1.08;;;;;;;;;;5024180;28;20036;-74
2022/01/28 15:35:54;;;;;;;5.53;1.60;;;;;;;;;;5042962;28;20072;-77
2022/01/28 15:38:21;;;;;;;;;;;;;;;;;;5017900;28;20060;-74
2022/01/28 15:40:48;;;;;;;4.20;1.48;;;;;;;;;;5038273;28;19921;-75
2022/01/28 15:43:16;;;;;;;8.55;1.90;;;;;;;;;;5020586;28;20049;-72
2022/01/28 15:45:46;;;;;;;2.97;1.10;;;;;;;;;;5034036;28;20460;-74
2022/01/28 15:48:18;;;;;;;4.55;1.67;;;;;;;;;;5046869;28;20037;-76
2022/01/28 15:50:49;;;;;;;3.60;1.13;;;;;;;;;;5012411;28;20135;-75
2022/01/28 15:53:16;;;;;;;3.88;1.00;;;;;;;;;;5046545;28;20124;-75
2022/01/28 15:55:45;;;;;;;3.40;1.30;;;;;;;;;;5049065;28;20072;-75
2022/01/28 15:58:13;;;;;;;7.97;1.95;;;;;;;;;;5045274;28;20072;-73
2022/01/28 16:00:40;;;;;;;4.35;1.40;;;;;;;;;;5037777;28;20406;-74
2022/01/28 16:03:08;;;;;;;3.22;1.20;;;;;;;;;;5047185;28;20033;-75
2022/01/28 16:05:36;;;;;;;5.30;1.33;;;;;;;;;;5034087;28;20240;-75
2022/01/28 16:08:05;;;;;;;3.55;1.60;;;;;;;;;;5025137;28;20176;-75
2022/01/28 16:10:47;;;;;;;8.07;1.95;;;;;;;;;;5028521;28;20432;-76
2022/01/28 16:13:25;;;;;;;5.13;1.88;;;;;;;;;;5045182;28;20397;-76
2022/01/28 16:18:23;;;;;;;5.05;1.65;;;;;;;;;;5029053;28;20051;-74
2022/01/28 16:20:51;;;;;;;6.25;1.65;;;;;;;;;;5037483;28;20468;-74
2022/01/28 16:23:18;;;;;;;5.22;1.67;;;;;;;;;;5045362;28;20102;-75
2022/01/28 16:25:46;;;;;;;4.25;2.20;;;;;;;;;;5023248;28;20047;-74
2022/01/28 16:28:13;;;;;;;5.40;1.92;;;;;;;;;;5042041;28;20076;-75
2022/01/28 16:30:41;;;;;;;6.80;1.67;;;;;;;;;;5037593;28;20041;-73
2022/01/28 16:33:08;;;;;;;7.28;1.52;;;;;;;;;;5042293;28;20033;-73
2022/01/28 16:35:36;;;;;;;5.20;1.63;;;;;;;;;;5044601;28;20044;-76